Time;durP1;ratioP1;P1;durP2;ratioP2;P2;SDS_P1;SDS_P2;PMS_P1;PMS_P2;Temp;Humidity;BMP_temperature;BMP_pressure;BME280_temperature;BME280_humidity;BME280_pressure;Samples;Min_cycle;Max_cycle;Signal;HPM_P1;HPM_P2
2022/09/30 00:00:39;;;;;;;1.10;1.00;;;;;7.90;95053.00;;;;5115197;28;20221;-60
2022/09/30 00:03:05;;;;;;;1.27;1.17;;;;;8.00;95047.00;;;;5114996;28;20198;-60
2022/09/30 00:05:32;;;;;;;1.70;1.60;;;;;8.10;95040.00;;;;5096963;28;20190;-60
2022/09/30 00:08:00;;;;;;;1.00;1.00;;;;;8.00;95041.00;;;;5114964;28;20198;-60
2022/09/30 00:10:28;;;;;;;1.00;1.00;;;;;8.10;95036.00;;;;5114888;28;20290;-61
2022/09/30 00:12:55;;;;;;;1.40;1.30;;;;;8.10;95042.00;;;;5114909;28;20205;-63
2022/09/30 00:15:22;;;;;;;1.50;1.40;;;;;8.10;95048.00;;;;5114978;28;20277;-61
2022/09/30 00:17:49;;;;;;;0.50;0.50;;;;;8.00;95047.00;;;;5114799;28;20228;-60
2022/09/30 00:20:18;;;;;;;1.03;1.03;;;;;7.90;95049.00;;;;5114864;28;20229;-63
2022/09/30 00:22:45;;;;;;;0.90;0.90;;;;;7.90;95055.00;;;;5114731;28;20224;-61
2022/09/30 00:25:14;;;;;;;0.83;0.83;;;;;7.90;95051.00;;;;5114916;28;20193;-59
2022/09/30 00:27:42;;;;;;;1.80;1.67;;;;;8.00;95052.00;;;;5114685;28;20292;-62
2022/09/30 00:30:10;;;;;;;1.03;1.03;;;;;7.90;95051.00;;;;5114573;28;20190;-61
2022/09/30 00:32:37;;;;;;;0.60;0.60;;;;;8.00;95053.00;;;;5114799;28;20587;-59
2022/09/30 00:35:04;;;;;;;0.80;0.80;;;;;8.00;95058.00;;;;5114867;28;20233;-61
2022/09/30 00:37:31;;;;;;;2.10;1.80;;;;;8.00;95054.00;;;;5114697;28;20216;-61
2022/09/30 00:39:58;;;;;;;0.73;0.73;;;;;8.00;95057.00;;;;5114350;28;20208;-60
2022/09/30 00:42:29;;;;;;;1.63;1.53;;;;;8.00;95052.00;;;;5114482;28;20214;-59
2022/09/30 00:45:02;;;;;;;0.87;0.87;;;;;8.00;95061.00;;;;5114609;28;20285;-61
2022/09/30 00:47:45;;;;;;;0.90;0.90;;;;;8.00;95061.00;;;;5096380;28;20205;-61
2022/09/30 00:50:24;;;;;;;1.43;1.33;;;;;8.00;94990.00;;;;5114396;28;20280;-61
2022/09/30 00:52:55;;;;;;;0.70;0.70;;;;;7.90;95065.00;;;;5114416;28;20232;-61
2022/09/30 00:55:30;;;;;;;0.90;0.90;;;;;8.00;95060.00;;;;5114290;28;20247;-61
2022/09/30 00:58:03;;;;;;;1.23;1.23;;;;;7.90;95059.00;;;;5114139;28;20217;-61
2022/09/30 01:00:30;;;;;;;1.10;1.10;;;;;8.00;95066.00;;;;5114417;28;20260;-61
2022/09/30 01:02:57;;;;;;;0.80;0.80;;;;;8.00;95061.00;;;;5114119;28;20263;-61
2022/09/30 01:05:25;;;;;;;0.70;0.70;;;;;8.00;95069.00;;;;5114239;28;20194;-60
2022/09/30 01:07:54;;;;;;;1.70;1.63;;;;;8.00;95056.00;;;;5114158;28;20194;-61
2022/09/30 01:10:21;;;;;;;1.20;1.10;;;;;8.00;95070.00;;;;5095522;28;20517;-61
2022/09/30 01:12:50;;;;;;;1.17;1.17;;;;;8.00;95062.00;;;;5096085;28;20206;-61
2022/09/30 01:15:20;;;;;;;1.70;1.43;;;;;8.00;95067.00;;;;5113931;28;20633;-61
2022/09/30 01:17:54;;;;;;;0.87;0.87;;;;;8.10;95072.00;;;;5114104;28;20190;-61
2022/09/30 01:20:53;;;;;;;1.57;1.53;;;;;8.10;95072.00;;;;5095828;28;20221;-61
2022/09/30 01:23:56;;;;;;;0.80;0.80;;;;;8.00;95078.00;;;;5113874;28;20202;-60
2022/09/30 01:26:49;;;;;;;0.80;0.80;;;;;8.10;95074.00;;;;5113681;28;20217;-61
2022/09/30 01:29:35;;;;;;;0.80;0.80;;;;;8.00;95062.00;;;;5095770;28;20210;-60
2022/09/30 01:32:12;;;;;;;0.87;0.87;;;;;8.00;95063.00;;;;5095933;28;20229;-61
2022/09/30 01:34:51;;;;;;;0.80;0.80;;;;;8.00;95069.00;;;;5113775;28;20637;-61
2022/09/30 01:37:24;;;;;;;1.03;1.03;;;;;7.80;95064.00;;;;5095628;28;20730;-61
2022/09/30 01:40:02;;;;;;;0.90;0.90;;;;;7.90;95083.00;;;;5113561;28;20202;-61
2022/09/30 01:42:36;;;;;;;0.93;0.93;;;;;7.80;95078.00;;;;5113874;28;20217;-61
2022/09/30 01:45:12;;;;;;;0.87;0.87;;;;;7.90;95079.00;;;;5113852;28;20729;-63
2022/09/30 01:47:45;;;;;;;0.70;0.70;;;;;7.80;95073.00;;;;5113509;28;20225;-61
2022/09/30 01:50:19;;;;;;;0.90;0.90;;;;;7.90;95080.00;;;;5095484;28;20202;-61
2022/09/30 01:52:55;;;;;;;2.17;1.20;;;;;7.70;95087.00;;;;5113476;28;20250;-61
2022/09/30 01:55:26;;;;;;;1.07;1.07;;;;;7.70;95090.00;;;;5113469;28;20552;-61
2022/09/30 01:57:59;;;;;;;1.03;1.03;;;;;7.80;95095.00;;;;5113336;28;20186;-61
2022/09/30 02:00:27;;;;;;;1.23;1.13;;;;;7.80;95107.00;;;;5113291;28;20397;-59
2022/09/30 02:02:58;;;;;;;1.40;1.30;;;;;7.90;95100.00;;;;5113406;28;20250;-62
2022/09/30 02:05:29;;;;;;;0.80;0.80;;;;;7.90;95097.00;;;;5113238;28;20213;-62
2022/09/30 02:08:00;;;;;;;1.00;1.00;;;;;8.00;95083.00;;;;5113276;28;20208;-61
2022/09/30 02:10:33;;;;;;;1.03;1.03;;;;;8.00;95088.00;;;;5113249;28;20222;-60
2022/09/30 02:13:04;;;;;;;2.67;1.93;;;;;8.00;95090.00;;;;5113333;28;20372;-60
2022/09/30 02:15:37;;;;;;;0.93;0.93;;;;;7.90;95094.00;;;;5095166;28;20221;-60
2022/09/30 02:18:10;;;;;;;0.80;0.80;;;;;8.00;95105.00;;;;5113079;28;20273;-60
2022/09/30 02:20:41;;;;;;;1.10;1.10;;;;;8.00;95114.00;;;;5113968;28;20216;-60
2022/09/30 02:23:13;;;;;;;1.77;1.20;;;;;8.00;95100.00;;;;5116769;28;20194;-60
2022/09/30 02:25:43;;;;;;;1.23;1.13;;;;;8.00;95096.00;;;;5116641;28;20628;-60
2022/09/30 02:28:14;;;;;;;1.10;1.10;;;;;8.00;95106.00;;;;5098713;28;20236;-61
2022/09/30 02:30:45;;;;;;;1.70;1.53;;;;;8.00;95104.00;;;;5116587;28;20200;-60
2022/09/30 02:33:18;;;;;;;1.33;1.27;;;;;8.00;95104.00;;;;5116594;28;20305;-60
2022/09/30 02:35:53;;;;;;;0.77;0.77;;;;;8.00;95109.00;;;;5116481;28;20198;-61
2022/09/30 02:38:28;;;;;;;0.97;0.97;;;;;8.00;95106.00;;;;5116337;28;20221;-61
2022/09/30 02:41:02;;;;;;;3.63;1.80;;;;;7.80;95114.00;;;;5116422;28;20222;-61
2022/09/30 02:43:30;;;;;;;1.00;1.00;;;;;7.60;95104.00;;;;5116343;28;20256;-61
2022/09/30 02:46:04;;;;;;;1.03;1.03;;;;;7.50;95111.00;;;;5116423;28;20661;-61
2022/09/30 02:48:42;;;;;;;0.60;0.60;;;;;7.50;95114.00;;;;5116343;28;20251;-61
2022/09/30 02:51:14;;;;;;;0.80;0.80;;;;;7.50;95120.00;;;;5098526;28;20285;-61
2022/09/30 02:53:48;;;;;;;1.17;1.17;;;;;7.60;95122.00;;;;5116597;28;20297;-61
2022/09/30 02:56:23;;;;;;;1.40;1.30;;;;;7.70;95117.00;;;;5116348;28;20500;-61
2022/09/30 02:58:55;;;;;;;0.80;0.80;;;;;7.70;95118.00;;;;5116184;28;20170;-61
2022/09/30 03:01:23;;;;;;;0.90;0.90;;;;;7.80;95113.00;;;;5116019;28;20569;-61
2022/09/30 03:03:54;;;;;;;1.90;1.80;;;;;7.80;95126.00;;;;5098016;28;20201;-61
2022/09/30 03:06:22;;;;;;;1.03;1.03;;;;;7.90;95129.00;;;;5116041;28;20222;-61
2022/09/30 03:08:50;;;;;;;1.73;1.63;;;;;7.80;95134.00;;;;5115949;28;20194;-61
2022/09/30 03:11:19;;;;;;;1.10;1.10;;;;;7.90;95136.00;;;;5116073;28;20221;-59
2022/09/30 03:14:08;;;;;;;1.17;1.17;;;;;7.90;95138.00;;;;5115855;28;20209;-61
2022/09/30 03:16:59;;;;;;;0.90;0.90;;;;;7.90;95130.00;;;;5115816;28;20251;-61
2022/09/30 03:19:39;;;;;;;0.80;0.80;;;;;7.90;95131.00;;;;5115831;28;20263;-61
2022/09/30 03:22:36;;;;;;;1.20;1.20;;;;;7.90;95137.00;;;;5115578;28;20217;-60
2022/09/30 03:25:16;;;;;;;0.60;0.60;;;;;7.90;95143.00;;;;5115764;28;20190;-59
2022/09/30 03:27:54;;;;;;;0.80;0.80;;;;;8.00;95148.00;;;;5115589;28;20190;-61
2022/09/30 03:30:25;;;;;;;2.07;0.90;;;;;8.00;95140.00;;;;5115659;28;20174;-62
2022/09/30 03:33:07;;;;;;;1.03;1.03;;;;;8.00;95143.00;;;;5114791;28;20259;-61
2022/09/30 03:35:43;;;;;;;0.70;0.70;;;;;8.00;95140.00;;;;5115654;28;20205;-61
2022/09/30 03:38:15;;;;;;;1.03;0.93;;;;;7.90;95100.00;;;;5097521;28;20194;-61
2022/09/30 03:40:54;;;;;;;0.83;0.83;;;;;7.80;95142.00;;;;5097560;28;20232;-61
2022/09/30 03:43:26;;;;;;;0.90;0.90;;;;;7.70;95138.00;;;;5115446;28;20189;-61
2022/09/30 03:45:58;;;;;;;0.70;0.70;;;;;7.70;95141.00;;;;5115391;28;20218;-61
2022/09/30 03:48:26;;;;;;;0.60;0.60;;;;;7.70;95142.00;;;;5115566;28;20182;-59
2022/09/30 03:50:58;;;;;;;0.73;0.73;;;;;7.60;95138.00;;;;5115460;28;20236;-59
2022/09/30 03:53:27;;;;;;;0.53;0.53;;;;;7.60;95145.00;;;;5115344;28;20617;-62
2022/09/30 03:55:54;;;;;;;0.70;0.70;;;;;7.70;95154.00;;;;5097581;28;20602;-61
2022/09/30 03:58:23;;;;;;;0.97;0.97;;;;;7.80;95160.00;;;;5097281;28;20267;-61
2022/09/30 04:00:52;;;;;;;1.73;1.63;;;;;7.70;95151.00;;;;5115129;28;20247;-60
2022/09/30 04:03:20;;;;;;;0.73;0.73;;;;;7.70;95165.00;;;;5115058;28;20198;-61
2022/09/30 04:05:47;;;;;;;1.17;1.17;;;;;7.70;95159.00;;;;5115106;28;20202;-61
2022/09/30 04:08:15;;;;;;;0.90;0.90;;;;;7.70;95161.00;;;;5097037;28;20310;-61
2022/09/30 04:10:43;;;;;;;1.33;1.30;;;;;7.70;95161.00;;;;5096964;28;20206;-61
2022/09/30 04:13:12;;;;;;;0.63;0.63;;;;;7.70;95168.00;;;;5114955;28;20217;-61
2022/09/30 04:15:40;;;;;;;2.77;2.17;;;;;7.60;95177.00;;;;5096972;28;20266;-61
2022/09/30 04:18:07;;;;;;;0.70;0.70;;;;;7.50;95173.00;;;;5114994;28;20498;-61
2022/09/30 04:20:34;;;;;;;1.10;1.10;;;;;7.60;95184.00;;;;5114762;28;20194;-61
2022/09/30 04:23:01;;;;;;;0.93;0.93;;;;;7.60;95180.00;;;;5114677;28;20214;-61
2022/09/30 04:25:29;;;;;;;0.70;0.70;;;;;7.70;95173.00;;;;5114682;28;20202;-62
2022/09/30 04:27:56;;;;;;;0.50;0.50;;;;;7.70;95181.00;;;;5114690;28;20218;-64
2022/09/30 04:30:22;;;;;;;0.80;0.80;;;;;7.60;95177.00;;;;5114565;28;20198;-62
2022/09/30 04:32:49;;;;;;;0.80;0.80;;;;;7.70;95172.00;;;;5114531;28;20229;-61
2022/09/30 04:35:16;;;;;;;0.80;0.80;;;;;7.70;95172.00;;;;5114590;28;20209;-61
2022/09/30 04:37:43;;;;;;;0.87;0.87;;;;;7.70;95171.00;;;;5096523;28;20222;-61
2022/09/30 04:40:11;;;;;;;0.93;0.93;;;;;7.70;95177.00;;;;5114704;28;20175;-61
2022/09/30 04:42:41;;;;;;;1.03;0.80;;;;;7.70;95189.00;;;;5114318;28;20602;-61
2022/09/30 04:45:10;;;;;;;0.73;0.73;;;;;7.60;95187.00;;;;5114604;28;20217;-62
2022/09/30 04:47:37;;;;;;;1.37;1.27;;;;;7.80;95181.00;;;;5114373;28;20186;-61
2022/09/30 04:50:06;;;;;;;1.63;1.30;;;;;7.70;95198.00;;;;5114550;28;20209;-61
2022/09/30 04:52:33;;;;;;;0.90;0.90;;;;;7.70;95196.00;;;;5114339;28;20197;-61
2022/09/30 04:55:00;;;;;;;1.20;1.13;;;;;7.70;95187.00;;;;5096442;28;20198;-62
2022/09/30 04:57:27;;;;;;;1.63;1.53;;;;;7.60;95192.00;;;;5114363;28;20193;-61
2022/09/30 04:59:54;;;;;;;0.60;0.60;;;;;7.70;95194.00;;;;5114287;28;20190;-62
2022/09/30 05:02:23;;;;;;;0.60;0.60;;;;;7.70;95198.00;;;;5096178;28;20649;-61
2022/09/30 05:04:50;;;;;;;0.70;0.70;;;;;7.80;95206.00;;;;5114192;28;20182;-61
2022/09/30 05:07:17;;;;;;;3.50;1.20;;;;;7.70;95206.00;;;;5114140;28;20212;-61
2022/09/30 05:09:44;;;;;;;1.20;1.20;;;;;7.70;95203.00;;;;5114081;28;20248;-59
2022/09/30 05:12:11;;;;;;;0.77;0.77;;;;;7.70;95202.00;;;;5114132;28;20198;-61
2022/09/30 05:14:38;;;;;;;1.23;1.23;;;;;7.70;95208.00;;;;5113947;28;20217;-60
2022/09/30 05:17:07;;;;;;;0.63;0.63;;;;;7.70;95216.00;;;;5113942;28;20193;-61
2022/09/30 05:19:34;;;;;;;1.40;1.30;;;;;7.70;95222.00;;;;5113873;28;20295;-61
2022/09/30 05:22:02;;;;;;;1.10;1.10;;;;;7.70;95218.00;;;;5113840;28;20218;-61
2022/09/30 05:24:31;;;;;;;1.10;1.10;;;;;7.80;95225.00;;;;5113825;28;20641;-62
2022/09/30 05:26:58;;;;;;;2.03;1.93;;;;;7.80;95227.00;;;;5113705;28;20198;-61
2022/09/30 05:29:24;;;;;;;0.90;0.90;;;;;7.80;95219.00;;;;5113745;28;20305;-61
2022/09/30 05:31:51;;;;;;;1.90;1.40;;;;;7.90;95223.00;;;;5114076;28;20198;-61
2022/09/30 05:34:20;;;;;;;0.97;0.97;;;;;7.90;95227.00;;;;5113674;28;20540;-60
2022/09/30 05:36:49;;;;;;;0.70;0.70;;;;;7.90;95224.00;;;;5113734;28;20202;-62
2022/09/30 05:39:16;;;;;;;1.13;1.13;;;;;7.90;95226.00;;;;5113839;28;20218;-61
2022/09/30 05:41:45;;;;;;;1.43;1.33;;;;;7.90;95192.00;;;;5095501;28;20323;-62
2022/09/30 05:44:12;;;;;;;1.00;1.00;;;;;8.00;95225.00;;;;5113493;28;20225;-62
2022/09/30 05:46:41;;;;;;;0.90;0.90;;;;;8.00;95229.00;;;;5113639;28;20233;-62
2022/09/30 05:49:08;;;;;;;1.27;1.23;;;;;8.00;95234.00;;;;5113447;28;20233;-61
2022/09/30 05:51:36;;;;;;;1.67;1.37;;;;;7.80;95241.00;;;;5112915;28;20644;-61
2022/09/30 05:54:02;;;;;;;2.50;2.23;;;;;7.70;95247.00;;;;5113448;28;20217;-61
2022/09/30 05:56:29;;;;;;;1.03;1.03;;;;;7.80;95250.00;;;;5112922;28;20254;-61
2022/09/30 05:58:56;;;;;;;1.47;1.37;;;;;7.80;95247.00;;;;5113351;28;20205;-61
2022/09/30 06:01:23;;;;;;;0.70;0.70;;;;;7.80;95243.00;;;;5113272;28;20222;-61
2022/09/30 06:03:49;;;;;;;0.87;0.87;;;;;7.80;95245.00;;;;5113320;28;20190;-61
2022/09/30 06:06:17;;;;;;;1.47;1.43;;;;;7.90;95257.00;;;;5113291;28;20194;-60
2022/09/30 06:08:45;;;;;;;1.00;0.90;;;;;7.90;95260.00;;;;5095259;28;20197;-62
2022/09/30 06:11:14;;;;;;;0.77;0.77;;;;;7.90;95259.00;;;;5095430;28;20359;-61
2022/09/30 06:13:42;;;;;;;0.67;0.67;;;;;7.90;95257.00;;;;5113136;28;20656;-60
2022/09/30 06:16:10;;;;;;;0.87;0.87;;;;;8.00;95254.00;;;;5113209;28;20194;-61
2022/09/30 06:18:40;;;;;;;0.70;0.70;;;;;8.00;95268.00;;;;5113035;28;20213;-61
2022/09/30 06:21:09;;;;;;;1.27;1.17;;;;;8.00;95259.00;;;;5113036;28;20229;-62
2022/09/30 06:23:38;;;;;;;1.83;1.73;;;;;8.10;95271.00;;;;5113072;28;20212;-61
2022/09/30 06:26:08;;;;;;;1.80;1.70;;;;;8.10;95273.00;;;;5113022;28;20190;-62
2022/09/30 06:28:34;;;;;;;1.73;1.63;;;;;8.10;95281.00;;;;5112977;28;20206;-61
2022/09/30 06:31:01;;;;;;;0.60;0.60;;;;;8.20;95278.00;;;;5112695;28;20194;-61
2022/09/30 06:33:28;;;;;;;1.03;1.03;;;;;8.20;95279.00;;;;5112877;28;20217;-61
2022/09/30 06:35:58;;;;;;;1.07;1.07;;;;;8.20;95275.00;;;;5112969;28;20521;-61
2022/09/30 06:38:27;;;;;;;0.90;0.90;;;;;8.10;95277.00;;;;5112871;28;20195;-62
2022/09/30 06:40:55;;;;;;;1.23;1.17;;;;;8.20;95295.00;;;;5094976;28;20544;-61
2022/09/30 06:43:22;;;;;;;0.90;0.90;;;;;8.30;95293.00;;;;5112752;28;20194;-65
2022/09/30 06:45:51;;;;;;;0.70;0.70;;;;;8.50;95298.00;;;;5112672;28;20599;-62
2022/09/30 06:48:18;;;;;;;0.90;0.90;;;;;8.50;95298.00;;;;5112664;28;20221;-62
2022/09/30 06:50:45;;;;;;;2.53;1.47;;;;;8.50;95302.00;;;;5112376;28;20221;-64
2022/09/30 06:53:14;;;;;;;2.13;1.17;;;;;8.60;95302.00;;;;5112686;28;20214;-63
2022/09/30 06:55:41;;;;;;;1.00;0.90;;;;;8.70;95300.00;;;;5112665;28;20202;-63
2022/09/30 06:58:15;;;;;;;0.70;0.70;;;;;8.70;95315.00;;;;5112619;28;20332;-64
2022/09/30 07:00:43;;;;;;;1.10;1.10;;;;;8.70;95311.00;;;;5094368;28;20202;-64
2022/09/30 07:03:23;;;;;;;1.20;1.10;;;;;8.80;95310.00;;;;5112371;28;20551;-64
2022/09/30 07:05:58;;;;;;;1.27;1.20;;;;;8.90;95316.00;;;;5112585;28;20182;-63
2022/09/30 07:08:30;;;;;;;1.50;1.40;;;;;9.00;95331.00;;;;5114607;28;20233;-63
2022/09/30 07:10:57;;;;;;;0.80;0.80;;;;;9.00;95328.00;;;;5098115;28;20210;-64
2022/09/30 07:13:24;;;;;;;0.80;0.80;;;;;9.00;95329.00;;;;5116040;28;20186;-64
2022/09/30 07:15:53;;;;;;;0.80;0.80;;;;;9.00;95335.00;;;;5116108;28;20697;-63
2022/09/30 07:18:20;;;;;;;0.90;0.90;;;;;8.90;95301.00;;;;5115880;28;20269;-66
2022/09/30 07:20:50;;;;;;;1.57;1.47;;;;;8.90;95332.00;;;;5115894;28;20292;-64
2022/09/30 07:23:17;;;;;;;0.87;0.87;;;;;8.90;95329.00;;;;5116214;28;20197;-66
2022/09/30 07:25:53;;;;;;;2.50;1.37;;;;;8.90;95327.00;;;;5116003;28;20222;-67
2022/09/30 07:28:21;;;;;;;0.90;0.90;;;;;9.00;95335.00;;;;5116042;28;20193;-66
2022/09/30 07:30:51;;;;;;;0.87;0.87;;;;;9.10;95339.00;;;;5115947;28;20229;-66
2022/09/30 07:33:18;;;;;;;0.73;0.73;;;;;9.30;95337.00;;;;5115792;28;20202;-66
2022/09/30 07:35:52;;;;;;;0.83;0.83;;;;;9.30;95330.00;;;;5115857;28;20192;-69
2022/09/30 07:38:20;;;;;;;1.40;1.37;;;;;9.30;95337.00;;;;5115740;28;20204;-64
2022/09/30 07:40:57;;;;;;;0.87;0.87;;;;;9.40;95344.00;;;;5116086;28;20276;-67
2022/09/30 07:43:25;;;;;;;0.80;0.80;;;;;9.40;95335.00;;;;5115833;28;20213;-66
2022/09/30 07:45:56;;;;;;;1.47;1.37;;;;;9.40;95343.00;;;;5115986;28;20197;-67
2022/09/30 07:48:42;;;;;;;0.93;0.93;;;;;9.50;95347.00;;;;5117642;28;20653;-66
2022/09/30 07:51:10;;;;;;;1.07;1.07;;;;;9.50;95356.00;;;;5115834;28;20204;-63
2022/09/30 07:53:37;;;;;;;1.07;1.07;;;;;9.60;95360.00;;;;5098975;28;20209;-64
2022/09/30 07:56:05;;;;;;;1.17;1.17;;;;;9.70;95364.00;;;;5118215;28;20202;-62
2022/09/30 07:58:32;;;;;;;3.10;2.00;;;;;9.70;95369.00;;;;5118347;28;20293;-63
2022/09/30 08:01:00;;;;;;;0.70;0.70;;;;;9.80;95372.00;;;;5115787;28;20257;-63
2022/09/30 08:03:27;;;;;;;1.00;1.00;;;;;9.90;95378.00;;;;5097508;28;20671;-63
2022/09/30 08:05:53;;;;;;;1.00;1.00;;;;;9.90;95383.00;;;;5115279;28;20252;-63
2022/09/30 08:08:21;;;;;;;0.80;0.80;;;;;9.90;95388.00;;;;5115941;28;20208;-63
2022/09/30 08:10:47;;;;;;;0.90;0.90;;;;;9.90;95387.00;;;;5116929;28;20517;-63
2022/09/30 08:13:15;;;;;;;1.07;1.07;;;;;10.00;95381.00;;;;5100080;28;20206;-63
2022/09/30 08:15:42;;;;;;;0.73;0.73;;;;;9.90;95380.00;;;;5115187;28;20680;-63
2022/09/30 08:18:10;;;;;;;0.87;0.87;;;;;9.90;95392.00;;;;5096625;28;20693;-63
2022/09/30 08:20:36;;;;;;;1.20;1.03;;;;;9.80;95400.00;;;;5115142;28;20205;-64
2022/09/30 08:23:03;;;;;;;3.30;2.07;;;;;9.80;95400.00;;;;5115778;28;20321;-63
2022/09/30 08:25:30;;;;;;;0.70;0.70;;;;;10.00;95402.00;;;;5115074;28;20276;-63
2022/09/30 08:27:57;;;;;;;1.17;1.17;;;;;10.00;95409.00;;;;5114730;28;20239;-63
2022/09/30 08:30:24;;;;;;;3.03;1.73;;;;;10.20;95406.00;;;;5114668;28;20292;-63
2022/09/30 08:32:51;;;;;;;0.87;0.87;;;;;10.40;95413.00;;;;5114871;28;20198;-61
2022/09/30 08:35:18;;;;;;;1.07;1.07;;;;;10.50;95410.00;;;;5114896;28;20669;-63
2022/09/30 08:37:45;;;;;;;1.43;1.33;;;;;10.70;95420.00;;;;5115222;28;20210;-61
2022/09/30 08:40:20;;;;;;;1.17;1.10;;;;;10.90;95412.00;;;;5115032;28;20187;-63
2022/09/30 08:43:02;;;;;;;1.83;1.17;;;;;11.10;95414.00;;;;5114728;28;20221;-63
2022/09/30 08:45:40;;;;;;;0.90;0.90;;;;;11.20;95415.00;;;;5115430;28;20602;-63
2022/09/30 08:48:18;;;;;;;0.80;0.80;;;;;11.50;95421.00;;;;5114545;28;20274;-63
2022/09/30 08:50:57;;;;;;;1.33;1.23;;;;;11.40;95418.00;;;;5114506;28;20723;-64
2022/09/30 08:53:29;;;;;;;0.77;0.77;;;;;11.30;95412.00;;;;5114344;28;20210;-63
2022/09/30 08:56:01;;;;;;;1.67;1.57;;;;;11.50;95418.00;;;;5114472;28;20186;-63
2022/09/30 08:58:30;;;;;;;1.37;1.27;;;;;11.80;95412.00;;;;5114171;28;20282;-61
2022/09/30 09:01:05;;;;;;;1.60;1.50;;;;;11.90;95416.00;;;;5096023;28;20208;-64
2022/09/30 09:03:33;;;;;;;0.80;0.80;;;;;12.20;95416.00;;;;5114172;28;20270;-65
2022/09/30 09:06:16;;;;;;;1.30;1.23;;;;;12.30;95416.00;;;;5114556;28;20210;-67
2022/09/30 09:08:58;;;;;;;1.43;1.33;;;;;12.30;95419.00;;;;5114330;28;20273;-65
2022/09/30 09:11:39;;;;;;;1.10;1.10;;;;;12.30;95414.00;;;;5096260;28;20209;-64
2022/09/30 09:14:16;;;;;;;3.13;2.17;;;;;12.50;95414.00;;;;5096322;28;20206;-64
2022/09/30 09:16:52;;;;;;;1.30;1.27;;;;;12.70;95414.00;;;;5114106;28;20304;-66
2022/09/30 09:19:24;;;;;;;1.37;1.30;;;;;12.30;95420.00;;;;5114048;28;20174;-67
2022/09/30 09:21:55;;;;;;;1.60;1.47;;;;;12.00;95419.00;;;;5113907;28;20313;-65
2022/09/30 09:24:25;;;;;;;1.57;1.50;;;;;12.10;95423.00;;;;5113888;28;20216;-65
2022/09/30 09:26:53;;;;;;;0.90;0.90;;;;;12.30;95416.00;;;;5113771;28;20213;-65
2022/09/30 09:29:37;;;;;;;0.93;0.93;;;;;12.40;95420.00;;;;5095699;28;20198;-62
2022/09/30 09:32:11;;;;;;;0.70;0.70;;;;;12.40;95426.00;;;;5113361;28;20746;-65
2022/09/30 09:34:39;;;;;;;1.60;0.90;;;;;12.60;95423.00;;;;5095701;28;20197;-64
2022/09/30 09:37:15;;;;;;;0.97;0.97;;;;;12.70;95419.00;;;;5114125;28;20656;-64
2022/09/30 09:40:09;;;;;;;1.07;1.07;;;;;12.90;95419.00;;;;5114042;28;20644;-64
2022/09/30 09:43:01;;;;;;;1.63;1.53;;;;;13.00;95423.00;;;;5113519;28;20311;-64
2022/09/30 09:45:33;;;;;;;1.80;1.73;;;;;13.20;95425.00;;;;5113909;28;20213;-64
2022/09/30 09:48:00;;;;;;;0.80;0.80;;;;;13.20;95432.00;;;;5113520;28;20258;-63
2022/09/30 09:50:37;;;;;;;1.10;1.10;;;;;13.60;95430.00;;;;5113292;28;20225;-65
2022/09/30 09:53:27;;;;;;;0.87;0.87;;;;;13.60;95435.00;;;;5113351;28;20236;-64
2022/09/30 09:55:58;;;;;;;0.90;0.90;;;;;13.90;95433.00;;;;5113388;28;20652;-65
2022/09/30 09:58:25;;;;;;;0.60;0.60;;;;;13.80;95435.00;;;;5113867;28;20617;-65
2022/09/30 10:01:10;;;;;;;0.93;0.93;;;;;13.70;95442.00;;;;5113389;28;20219;-64
2022/09/30 10:03:39;;;;;;;0.87;0.87;;;;;14.00;95438.00;;;;5095204;28;20633;-64
2022/09/30 10:06:08;;;;;;;1.03;1.03;;;;;14.00;95441.00;;;;5113263;28;20249;-65
2022/09/30 10:08:38;;;;;;;1.00;1.00;;;;;13.90;95439.00;;;;5095047;28;20245;-65
2022/09/30 10:11:07;;;;;;;0.60;0.60;;;;;14.10;95442.00;;;;5113145;28;20564;-64
2022/09/30 10:13:43;;;;;;;1.27;1.03;;;;;14.50;95434.00;;;;5112665;28;20209;-65
2022/09/30 10:16:27;;;;;;;0.90;0.90;;;;;14.60;95435.00;;;;5112537;28;20217;-65
2022/09/30 10:18:54;;;;;;;0.90;0.90;;;;;14.80;95436.00;;;;5112994;28;20256;-65
2022/09/30 10:21:22;;;;;;;0.70;0.70;;;;;15.00;95430.00;;;;5113103;28;20210;-65
2022/09/30 10:23:50;;;;;;;1.03;1.03;;;;;15.40;95440.00;;;;5095081;28;20208;-65
2022/09/30 10:26:19;;;;;;;0.90;0.90;;;;;15.30;95442.00;;;;5113067;28;20213;-63
2022/09/30 10:28:50;;;;;;;0.90;0.90;;;;;15.40;95434.00;;;;5094918;28;20285;-65
2022/09/30 10:31:22;;;;;;;0.67;0.67;;;;;15.50;95440.00;;;;5112750;28;20190;-65
2022/09/30 10:33:56;;;;;;;0.83;0.83;;;;;15.60;95450.00;;;;5112851;28;20273;-65
2022/09/30 10:36:30;;;;;;;0.60;0.60;;;;;15.20;95449.00;;;;5094937;28;20226;-65
2022/09/30 10:39:02;;;;;;;0.90;0.90;;;;;15.00;95454.00;;;;5112685;28;20197;-65
2022/09/30 10:41:31;;;;;;;0.50;0.50;;;;;14.80;95465.00;;;;5113615;28;20226;-65
2022/09/30 10:44:00;;;;;;;0.87;0.87;;;;;15.00;95458.00;;;;5116500;28;20194;-65
2022/09/30 10:46:31;;;;;;;0.70;0.70;;;;;14.90;95462.00;;;;5116332;28;20273;-65
2022/09/30 10:48:59;;;;;;;0.67;0.67;;;;;14.80;95460.00;;;;5116340;28;20323;-65
2022/09/30 10:51:33;;;;;;;3.30;1.10;;;;;14.90;95462.00;;;;5116280;28;20232;-65
2022/09/30 10:54:00;;;;;;;1.03;0.80;;;;;14.80;95463.00;;;;5116143;28;20244;-65
2022/09/30 10:56:43;;;;;;;1.13;1.00;;;;;14.60;95452.00;;;;5116363;28;20254;-65
2022/09/30 10:59:18;;;;;;;0.73;0.73;;;;;14.60;95453.00;;;;5116097;28;20218;-61
2022/09/30 11:01:53;;;;;;;1.07;1.07;;;;;14.50;95463.00;;;;5115992;28;20283;-65
2022/09/30 11:04:27;;;;;;;0.70;0.70;;;;;14.70;95459.00;;;;5116053;28;20194;-65
2022/09/30 11:06:59;;;;;;;5.70;0.90;;;;;14.60;95463.00;;;;5116045;28;20190;-65
2022/09/30 11:09:34;;;;;;;1.27;1.17;;;;;14.70;95458.00;;;;5116021;28;20202;-64
2022/09/30 11:12:09;;;;;;;0.70;0.70;;;;;14.30;95441.00;;;;5098003;28;20201;-63
2022/09/30 11:14:42;;;;;;;0.60;0.60;;;;;15.00;95434.00;;;;5115946;28;20205;-65
2022/09/30 11:17:22;;;;;;;0.50;0.50;;;;;15.70;95433.00;;;;5115767;28;20700;-65
2022/09/30 11:19:55;;;;;;;0.73;0.73;;;;;16.00;95432.00;;;;5115854;28;20649;-63
2022/09/30 11:22:32;;;;;;;0.90;0.90;;;;;15.80;95467.00;;;;5115666;28;20232;-64
2022/09/30 11:25:00;;;;;;;0.90;0.90;;;;;15.40;95463.00;;;;5115972;28;20598;-65
2022/09/30 11:27:38;;;;;;;0.80;0.80;;;;;15.10;95458.00;;;;5115773;28;20251;-65
2022/09/30 11:30:11;;;;;;;0.83;0.83;;;;;15.30;95469.00;;;;5115740;28;20190;-62
2022/09/30 11:33:05;;;;;;;0.70;0.70;;;;;15.40;95470.00;;;;5115975;28;20286;-64
2022/09/30 11:35:51;;;;;;;0.70;0.70;;;;;15.00;95473.00;;;;5115777;28;20198;-65
2022/09/30 11:38:39;;;;;;;0.63;0.63;;;;;15.30;95471.00;;;;5115740;28;20197;-64
2022/09/30 11:41:13;;;;;;;0.43;0.43;;;;;15.30;95473.00;;;;5115687;28;20178;-64
2022/09/30 11:43:51;;;;;;;0.70;0.70;;;;;15.10;95464.00;;;;5115572;28;20190;-64
2022/09/30 11:46:50;;;;;;;1.03;1.03;;;;;15.00;95480.00;;;;5115344;28;20274;-65
2022/09/30 11:49:32;;;;;;;0.60;0.60;;;;;15.10;95473.00;;;;5115522;28;20275;-65
2022/09/30 11:52:13;;;;;;;0.80;0.80;;;;;15.00;95484.00;;;;5098150;28;20225;-64
2022/09/30 11:54:59;;;;;;;0.70;0.70;;;;;15.00;95485.00;;;;5115089;28;20509;-63
2022/09/30 11:57:34;;;;;;;0.60;0.60;;;;;15.10;95490.00;;;;5115356;28;20205;-65
2022/09/30 12:00:12;;;;;;;0.90;0.90;;;;;15.10;95483.00;;;;5115181;28;20518;-64
2022/09/30 12:02:43;;;;;;;0.90;0.90;;;;;15.20;95478.00;;;;5115178;28;20748;-65
2022/09/30 12:05:17;;;;;;;0.43;0.43;;;;;15.10;95473.00;;;;5115211;28;20277;-67
2022/09/30 12:07:48;;;;;;;0.67;0.67;;;;;15.30;95474.00;;;;5115107;28;20228;-65
2022/09/30 12:10:20;;;;;;;0.60;0.60;;;;;15.10;95474.00;;;;5115240;28;20182;-64
2022/09/30 12:12:52;;;;;;;0.63;0.63;;;;;15.30;95473.00;;;;5115046;28;20626;-64
2022/09/30 12:15:23;;;;;;;0.50;0.50;;;;;15.00;95474.00;;;;5114907;28;20217;-64
2022/09/30 12:17:58;;;;;;;1.00;1.00;;;;;15.20;95469.00;;;;5096883;28;20237;-64
2022/09/30 12:20:29;;;;;;;0.63;0.63;;;;;15.60;95469.00;;;;5114819;28;20217;-64
2022/09/30 12:23:06;;;;;;;0.83;0.83;;;;;15.60;95473.00;;;;5115104;28;20300;-64
2022/09/30 12:25:38;;;;;;;0.83;0.83;;;;;15.50;95475.00;;;;5114698;28;20209;-64
2022/09/30 12:30:59;;;;;;;1.47;1.37;;;;;15.50;95480.00;;;;5113729;28;20672;-61
2022/09/30 12:33:49;;;;;;;0.57;0.57;;;;;15.40;95481.00;;;;5114879;28;20216;-64
2022/09/30 12:36:46;;;;;;;0.77;0.77;;;;;15.60;95483.00;;;;5114833;28;20197;-64
2022/09/30 12:39:57;;;;;;;0.97;0.97;;;;;15.50;95490.00;;;;5114848;28;20190;-61
2022/09/30 12:42:57;;;;;;;0.60;0.60;;;;;15.70;95494.00;;;;5115151;28;20221;-64
2022/09/30 12:45:38;;;;;;;0.70;0.70;;;;;15.60;95499.00;;;;5097178;28;20205;-64
2022/09/30 12:48:07;;;;;;;1.00;0.90;;;;;15.50;95492.00;;;;5115095;28;20285;-63
2022/09/30 12:50:40;;;;;;;0.77;0.77;;;;;15.40;95489.00;;;;5115497;28;20194;-63